sensor_id;sensor_type;location;lat;lon;timestamp;pressure;altitude;pressure_sealevel;temperature;humidity
35435;BME280;21556;55.782;37.528;2024-03-23T00:51:54;98751.66;;;6.83;100.00
35435;BME280;21556;55.782;37.528;2024-03-23T00:54:23;98748.72;;;6.63;100.00
35435;BME280;21556;55.782;37.528;2024-03-23T00:56:58;98743.13;;;6.93;100.00
35435;BME280;21556;55.782;37.528;2024-03-23T00:59:30;98738.97;;;6.53;100.00
35435;BME280;21556;55.782;37.528;2024-03-23T01:01:59;98739.22;;;6.65;100.00
35435;BME280;21556;55.782;37.528;2024-03-23T01:04:25;98736.91;;;6.85;100.00
35435;BME280;21556;55.782;37.528;2024-03-23T01:06:54;98730.56;;;6.69;100.00
35435;BME280;21556;55.782;37.528;2024-03-23T01:09:23;98734.00;;;6.67;100.00
35435;BME280;21556;55.782;37.528;2024-03-23T01:11:54;98721.06;;;6.73;100.00
35435;BME280;21556;55.782;37.528;2024-03-23T01:14:20;98714.31;;;6.84;100.00
35435;BME280;21556;55.782;37.528;2024-03-23T01:16:47;98713.38;;;6.79;100.00
35435;BME280;21556;55.782;37.528;2024-03-23T01:19:15;98713.56;;;6.93;100.00
35435;BME280;21556;55.782;37.528;2024-03-23T01:21:41;98708.50;;;7.04;100.00
35435;BME280;21556;55.782;37.528;2024-03-23T01:24:08;98721.13;;;6.76;100.00
35435;BME280;21556;55.782;37.528;2024-03-23T01:26:39;98707.75;;;6.56;100.00
35435;BME280;21556;55.782;37.528;2024-03-23T01:29:06;98702.53;;;7.11;100.00
35435;BME280;21556;55.782;37.528;2024-03-23T01:31:32;98700.41;;;6.84;100.00
35435;BME280;21556;55.782;37.528;2024-03-23T01:33:58;98710.66;;;6.74;100.00
35435;BME280;21556;55.782;37.528;2024-03-23T01:36:24;98689.94;;;6.82;100.00
35435;BME280;21556;55.782;37.528;2024-03-23T01:38:50;98687.63;;;7.04;100.00
35435;BME280;21556;55.782;37.528;2024-03-23T01:41:20;98679.97;;;6.55;100.00
35435;BME280;21556;55.782;37.528;2024-03-23T01:43:46;98681.22;;;6.80;100.00
35435;BME280;21556;55.782;37.528;2024-03-23T01:46:14;98682.97;;;6.81;100.00
35435;BME280;21556;55.782;37.528;2024-03-23T01:48:40;98672.81;;;6.98;100.00
35435;BME280;21556;55.782;37.528;2024-03-23T01:51:09;98683.88;;;6.85;100.00
35435;BME280;21556;55.782;37.528;2024-03-23T01:53:36;98671.50;;;6.71;100.00
35435;BME280;21556;55.782;37.528;2024-03-23T01:56:02;98681.56;;;6.48;100.00
35435;BME280;21556;55.782;37.528;2024-03-23T01:58:28;98665.41;;;6.69;100.00
35435;BME280;21556;55.782;37.528;2024-03-23T02:00:54;98657.38;;;6.56;100.00
35435;BME280;21556;55.782;37.528;2024-03-23T02:03:27;98649.88;;;6.75;100.00
35435;BME280;21556;55.782;37.528;2024-03-23T02:05:55;98648.03;;;6.70;100.00
35435;BME280;21556;55.782;37.528;2024-03-23T02:08:22;98654.13;;;6.69;100.00
35435;BME280;21556;55.782;37.528;2024-03-23T02:10:50;98641.91;;;6.66;100.00
35435;BME280;21556;55.782;37.528;2024-03-23T02:13:23;98648.69;;;6.54;100.00
35435;BME280;21556;55.782;37.528;2024-03-23T02:15:50;98623.97;;;6.30;100.00
35435;BME280;21556;55.782;37.528;2024-03-23T02:18:17;98628.78;;;6.60;100.00
35435;BME280;21556;55.782;37.528;2024-03-23T02:20:46;98630.28;;;6.44;100.00
35435;BME280;21556;55.782;37.528;2024-03-23T02:23:15;98628.97;;;6.72;100.00
35435;BME280;21556;55.782;37.528;2024-03-23T02:25:42;98623.94;;;6.29;100.00
35435;BME280;21556;55.782;37.528;2024-03-23T02:28:11;98627.63;;;6.41;100.00
35435;BME280;21556;55.782;37.528;2024-03-23T02:30:37;98601.78;;;6.55;100.00
35435;BME280;21556;55.782;37.528;2024-03-23T02:33:03;98607.16;;;6.66;100.00
35435;BME280;21556;55.782;37.528;2024-03-23T02:35:29;98599.94;;;6.48;100.00
35435;BME280;21556;55.782;37.528;2024-03-23T02:37:58;98606.88;;;6.47;100.00
35435;BME280;21556;55.782;37.528;2024-03-23T02:40:24;98593.84;;;6.49;100.00
35435;BME280;21556;55.782;37.528;2024-03-23T02:42:54;98577.66;;;6.70;100.00
35435;BME280;21556;55.782;37.528;2024-03-23T02:45:19;98579.34;;;6.68;100.00
35435;BME280;21556;55.782;37.528;2024-03-23T02:47:46;98574.13;;;6.65;100.00
35435;BME280;21556;55.782;37.528;2024-03-23T02:50:12;98568.06;;;6.67;100.00
35435;BME280;21556;55.782;37.528;2024-03-23T02:52:37;98561.78;;;6.51;100.00
35435;BME280;21556;55.782;37.528;2024-03-23T02:55:03;98557.28;;;6.41;100.00
35435;BME280;21556;55.782;37.528;2024-03-23T02:57:30;98561.66;;;6.45;100.00
35435;BME280;21556;55.782;37.528;2024-03-23T02:59:56;98547.94;;;6.57;100.00
35435;BME280;21556;55.782;37.528;2024-03-23T03:02:22;98549.75;;;6.61;100.00
35435;BME280;21556;55.782;37.528;2024-03-23T03:04:47;98540.25;;;6.66;100.00
35435;BME280;21556;55.782;37.528;2024-03-23T03:07:16;98533.34;;;6.09;100.00
35435;BME280;21556;55.782;37.528;2024-03-23T03:09:43;98529.53;;;6.45;100.00
35435;BME280;21556;55.782;37.528;2024-03-23T03:12:08;98522.69;;;6.51;100.00
35435;BME280;21556;55.782;37.528;2024-03-23T03:14:34;98528.59;;;6.40;100.00
35435;BME280;21556;55.782;37.528;2024-03-23T03:17:00;98525.25;;;6.48;100.00
35435;BME280;21556;55.782;37.528;2024-03-23T03:19:26;98524.44;;;6.53;100.00
35435;BME280;21556;55.782;37.528;2024-03-23T03:21:55;98518.41;;;6.57;100.00
35435;BME280;21556;55.782;37.528;2024-03-23T03:24:21;98523.50;;;6.47;100.00
35435;BME280;21556;55.782;37.528;2024-03-23T03:26:46;98511.28;;;6.43;100.00
35435;BME280;21556;55.782;37.528;2024-03-23T03:29:15;98512.34;;;6.58;100.00
35435;BME280;21556;55.782;37.528;2024-03-23T03:31:43;98516.56;;;6.49;100.00
35435;BME280;21556;55.782;37.528;2024-03-23T03:34:12;98505.97;;;6.37;100.00
35435;BME280;21556;55.782;37.528;2024-03-23T03:36:38;98500.00;;;6.44;100.00
35435;BME280;21556;55.782;37.528;2024-03-23T03:39:03;98499.31;;;6.58;100.00
35435;BME280;21556;55.782;37.528;2024-03-23T03:41:31;98505.31;;;6.50;100.00
35435;BME280;21556;55.782;37.528;2024-03-23T03:43:57;98487.75;;;6.37;100.00
35435;BME280;21556;55.782;37.528;2024-03-23T03:46:29;98492.09;;;6.37;100.00
35435;BME280;21556;55.782;37.528;2024-03-23T03:49:00;98469.47;;;6.34;100.00
35435;BME280;21556;55.782;37.528;2024-03-23T03:51:26;98467.03;;;6.46;100.00
35435;BME280;21556;55.782;37.528;2024-03-23T03:53:52;98477.31;;;6.36;100.00
35435;BME280;21556;55.782;37.528;2024-03-23T03:56:18;98471.28;;;6.40;100.00
35435;BME280;21556;55.782;37.528;2024-03-23T03:58:47;98451.91;;;6.19;100.00
35435;BME280;21556;55.782;37.528;2024-03-23T04:01:12;98461.53;;;6.25;100.00
35435;BME280;21556;55.782;37.528;2024-03-23T04:03:38;98448.81;;;6.48;100.00
35435;BME280;21556;55.782;37.528;2024-03-23T04:06:09;98446.25;;;6.51;100.00
35435;BME280;21556;55.782;37.528;2024-03-23T04:08:35;98450.25;;;6.27;100.00
35435;BME280;21556;55.782;37.528;2024-03-23T04:11:01;98448.75;;;6.43;100.00
35435;BME280;21556;55.782;37.528;2024-03-23T04:13:27;98439.44;;;6.62;100.00
35435;BME280;21556;55.782;37.528;2024-03-23T04:15:56;98444.44;;;6.45;100.00
35435;BME280;21556;55.782;37.528;2024-03-23T04:18:22;98442.97;;;6.67;100.00
35435;BME280;21556;55.782;37.528;2024-03-23T04:20:51;98437.34;;;6.34;100.00
35435;BME280;21556;55.782;37.528;2024-03-23T04:23:17;98442.63;;;6.40;100.00
35435;BME280;21556;55.782;37.528;2024-03-23T04:25:44;98430.38;;;6.34;100.00
35435;BME280;21556;55.782;37.528;2024-03-23T04:28:12;98428.00;;;6.51;100.00
35435;BME280;21556;55.782;37.528;2024-03-23T04:30:38;98428.00;;;6.51;100.00
35435;BME280;21556;55.782;37.528;2024-03-23T04:33:04;98416.78;;;6.57;100.00
35435;BME280;21556;55.782;37.528;2024-03-23T04:35:31;98417.75;;;6.68;100.00
35435;BME280;21556;55.782;37.528;2024-03-23T04:37:57;98403.72;;;6.55;100.00
35435;BME280;21556;55.782;37.528;2024-03-23T04:40:24;98409.06;;;6.66;100.00
35435;BME280;21556;55.782;37.528;2024-03-23T04:42:52;98409.81;;;6.56;100.00
35435;BME280;21556;55.782;37.528;2024-03-23T04:45:18;98397.78;;;6.67;100.00
35435;BME280;21556;55.782;37.528;2024-03-23T04:47:44;98412.56;;;6.68;100.00
35435;BME280;21556;55.782;37.528;2024-03-23T04:50:10;98432.53;;;6.00;100.00
35435;BME280;21556;55.782;37.528;2024-03-23T04:52:36;98392.81;;;6.17;100.00
35435;BME280;21556;55.782;37.528;2024-03-23T04:55:02;98387.72;;;6.24;100.00
35435;BME280;21556;55.782;37.528;2024-03-23T04:57:29;98388.88;;;6.46;100.00
35435;BME280;21556;55.782;37.528;2024-03-23T04:59:55;98381.44;;;6.07;100.00
35435;BME280;21556;55.782;37.528;2024-03-23T05:02:21;98382.63;;;6.32;100.00
35435;BME280;21556;55.782;37.528;2024-03-23T05:04:47;98382.88;;;6.55;100.00
35435;BME280;21556;55.782;37.528;2024-03-23T05:07:13;98394.97;;;6.47;100.00
35435;BME280;21556;55.782;37.528;2024-03-23T05:09:39;98379.38;;;6.51;100.00
35435;BME280;21556;55.782;37.528;2024-03-23T05:12:05;98393.13;;;6.40;100.00
35435;BME280;21556;55.782;37.528;2024-03-23T05:14:31;98392.66;;;6.05;100.00
35435;BME280;21556;55.782;37.528;2024-03-23T05:16:57;98384.13;;;6.15;100.00
35435;BME280;21556;55.782;37.528;2024-03-23T05:19:22;98376.56;;;6.33;100.00
35435;BME280;21556;55.782;37.528;2024-03-23T05:22:24;98374.91;;;6.40;100.00
35435;BME280;21556;55.782;37.528;2024-03-23T05:24:50;98364.47;;;6.40;100.00
35435;BME280;21556;55.782;37.528;2024-03-23T05:27:18;98378.88;;;6.12;100.00
35435;BME280;21556;55.782;37.528;2024-03-23T05:29:44;98366.31;;;6.48;100.00
35435;BME280;21556;55.782;37.528;2024-03-23T05:32:12;98353.94;;;6.31;100.00
35435;BME280;21556;55.782;37.528;2024-03-23T05:34:38;98349.75;;;6.43;100.00
35435;BME280;21556;55.782;37.528;2024-03-23T05:37:04;98355.63;;;6.27;100.00
35435;BME280;21556;55.782;37.528;2024-03-23T05:39:30;98344.38;;;6.31;100.00
35435;BME280;21556;55.782;37.528;2024-03-23T05:41:55;98348.34;;;6.73;100.00
35435;BME280;21556;55.782;37.528;2024-03-23T05:44:23;98344.69;;;6.57;100.00
35435;BME280;21556;55.782;37.528;2024-03-23T05:46:49;98334.06;;;6.37;100.00
35435;BME280;21556;55.782;37.528;2024-03-23T05:49:15;98331.22;;;6.19;100.00
35435;BME280;21556;55.782;37.528;2024-03-23T05:51:42;98324.63;;;6.47;100.00
35435;BME280;21556;55.782;37.528;2024-03-23T05:54:13;98340.91;;;6.31;100.00
35435;BME280;21556;55.782;37.528;2024-03-23T05:56:44;98323.63;;;6.36;100.00
35435;BME280;21556;55.782;37.528;2024-03-23T05:59:15;98330.06;;;6.68;100.00
35435;BME280;21556;55.782;37.528;2024-03-23T06:01:41;98332.50;;;6.55;100.00
35435;BME280;21556;55.782;37.528;2024-03-23T06:04:10;98316.75;;;6.44;100.00
35435;BME280;21556;55.782;37.528;2024-03-23T06:06:35;98322.09;;;6.56;100.00
35435;BME280;21556;55.782;37.528;2024-03-23T06:09:02;98317.38;;;6.24;100.00
35435;BME280;21556;55.782;37.528;2024-03-23T06:11:40;98324.34;;;6.24;100.00
35435;BME280;21556;55.782;37.528;2024-03-23T06:14:06;98310.66;;;6.40;100.00
35435;BME280;21556;55.782;37.528;2024-03-23T06:16:32;98314.22;;;6.50;100.00
35435;BME280;21556;55.782;37.528;2024-03-23T06:18:58;98323.50;;;6.26;100.00
35435;BME280;21556;55.782;37.528;2024-03-23T06:21:24;98313.31;;;6.48;100.00
35435;BME280;21556;55.782;37.528;2024-03-23T06:23:54;98308.06;;;6.43;100.00
35435;BME280;21556;55.782;37.528;2024-03-23T06:26:20;98318.34;;;6.31;100.00
35435;BME280;21556;55.782;37.528;2024-03-23T06:28:46;98298.28;;;6.24;100.00
35435;BME280;21556;55.782;37.528;2024-03-23T06:31:12;98296.72;;;6.37;100.00
35435;BME280;21556;55.782;37.528;2024-03-23T06:33:38;98301.88;;;6.32;100.00
35435;BME280;21556;55.782;37.528;2024-03-23T06:36:04;98318.22;;;6.17;100.00
35435;BME280;21556;55.782;37.528;2024-03-23T06:38:30;98298.16;;;6.12;100.00
35435;BME280;21556;55.782;37.528;2024-03-23T06:40:56;98300.97;;;6.32;100.00
35435;BME280;21556;55.782;37.528;2024-03-23T06:43:22;98293.13;;;6.25;100.00
35435;BME280;21556;55.782;37.528;2024-03-23T06:45:52;98292.22;;;6.22;100.00
35435;BME280;21556;55.782;37.528;2024-03-23T06:48:22;98276.41;;;6.08;100.00
35435;BME280;21556;55.782;37.528;2024-03-23T06:50:54;98273.19;;;6.31;100.00
35435;BME280;21556;55.782;37.528;2024-03-23T06:53:20;98304.44;;;6.31;100.00
35435;BME280;21556;55.782;37.528;2024-03-23T06:55:49;98279.38;;;6.42;100.00
35435;BME280;21556;55.782;37.528;2024-03-23T06:58:15;98265.59;;;6.52;100.00
35435;BME280;21556;55.782;37.528;2024-03-23T07:00:41;98283.03;;;6.58;100.00
35435;BME280;21556;55.782;37.528;2024-03-23T07:03:07;98276.84;;;6.48;100.00
35435;BME280;21556;55.782;37.528;2024-03-23T07:05:33;98258.63;;;6.48;100.00
35435;BME280;21556;55.782;37.528;2024-03-23T07:07:58;98272.47;;;6.45;100.00
35435;BME280;21556;55.782;37.528;2024-03-23T07:10:24;98272.50;;;6.47;100.00
35435;BME280;21556;55.782;37.528;2024-03-23T07:12:50;98271.41;;;6.25;100.00
35435;BME280;21556;55.782;37.528;2024-03-23T07:15:17;98272.31;;;6.29;100.00
35435;BME280;21556;55.782;37.528;2024-03-23T07:17:46;98254.19;;;6.39;100.00
35435;BME280;21556;55.782;37.528;2024-03-23T07:20:11;98273.34;;;6.46;100.00
35435;BME280;21556;55.782;37.528;2024-03-23T07:22:38;98259.53;;;6.53;100.00
35435;BME280;21556;55.782;37.528;2024-03-23T07:25:05;98253.66;;;6.77;100.00
35435;BME280;21556;55.782;37.528;2024-03-23T07:30:15;98251.50;;;6.30;100.00
35435;BME280;21556;55.782;37.528;2024-03-23T07:32:43;98251.28;;;6.12;100.00
35435;BME280;21556;55.782;37.528;2024-03-23T07:35:09;98246.56;;;6.58;100.00
35435;BME280;21556;55.782;37.528;2024-03-23T07:37:35;98252.59;;;6.55;100.00
35435;BME280;21556;55.782;37.528;2024-03-23T07:40:01;98239.56;;;6.57;100.00
35435;BME280;21556;55.782;37.528;2024-03-23T07:42:40;98226.47;;;6.47;100.00
35435;BME280;21556;55.782;37.528;2024-03-23T07:45:13;98234.38;;;6.54;100.00
35435;BME280;21556;55.782;37.528;2024-03-23T07:47:42;98237.00;;;6.60;100.00
35435;BME280;21556;55.782;37.528;2024-03-23T07:50:08;98237.75;;;6.45;100.00
35435;BME280;21556;55.782;37.528;2024-03-23T07:52:35;98232.69;;;6.63;100.00
35435;BME280;21556;55.782;37.528;2024-03-23T07:55:01;98232.56;;;6.46;100.00
35435;BME280;21556;55.782;37.528;2024-03-23T07:57:29;98234.53;;;6.73;100.00
35435;BME280;21556;55.782;37.528;2024-03-23T07:59:54;98231.09;;;6.81;100.00
35435;BME280;21556;55.782;37.528;2024-03-23T08:02:20;98219.44;;;6.36;100.00
35435;BME280;21556;55.782;37.528;2024-03-23T08:04:46;98217.88;;;6.56;100.00
35435;BME280;21556;55.782;37.528;2024-03-23T08:07:17;98217.84;;;6.50;100.00
35435;BME280;21556;55.782;37.528;2024-03-23T08:09:43;98218.19;;;6.94;100.00
35435;BME280;21556;55.782;37.528;2024-03-23T08:12:09;98212.09;;;6.95;100.00
35435;BME280;21556;55.782;37.528;2024-03-23T08:14:35;98216.44;;;6.96;100.00
35435;BME280;21556;55.782;37.528;2024-03-23T08:17:01;98211.97;;;6.75;100.00
35435;BME280;21556;55.782;37.528;2024-03-23T08:19:34;98207.69;;;6.90;100.00
35435;BME280;21556;55.782;37.528;2024-03-23T08:22:00;98213.66;;;6.75;100.00
35435;BME280;21556;55.782;37.528;2024-03-23T08:24:27;98213.50;;;6.50;100.00
35435;BME280;21556;55.782;37.528;2024-03-23T08:26:58;98206.97;;;7.05;100.00
35435;BME280;21556;55.782;37.528;2024-03-23T08:29:24;98212.06;;;6.92;100.00
35435;BME280;21556;55.782;37.528;2024-03-23T08:31:50;98204.34;;;7.05;100.00
35435;BME280;21556;55.782;37.528;2024-03-23T08:34:16;98205.94;;;6.86;100.00
35435;BME280;21556;55.782;37.528;2024-03-23T08:36:42;98220.75;;;6.91;100.00
35435;BME280;21556;55.782;37.528;2024-03-23T08:39:08;98191.38;;;7.15;100.00
35435;BME280;21556;55.782;37.528;2024-03-23T08:41:41;98195.47;;;6.81;100.00
35435;BME280;21556;55.782;37.528;2024-03-23T08:44:11;98190.41;;;7.04;100.00
35435;BME280;21556;55.782;37.528;2024-03-23T08:46:38;98194.91;;;7.23;100.00
35435;BME280;21556;55.782;37.528;2024-03-23T08:49:04;98193.09;;;7.12;100.00
35435;BME280;21556;55.782;37.528;2024-03-23T08:51:32;98172.09;;;6.92;100.00
35435;BME280;21556;55.782;37.528;2024-03-23T08:54:05;98193.03;;;7.01;100.00
35435;BME280;21556;55.782;37.528;2024-03-23T08:56:31;98185.28;;;7.18;100.00
35435;BME280;21556;55.782;37.528;2024-03-23T08:58:57;98178.38;;;7.24;100.00
35435;BME280;21556;55.782;37.528;2024-03-23T09:01:23;98174.97;;;7.36;100.00
35435;BME280;21556;55.782;37.528;2024-03-23T09:03:48;98168.69;;;7.04;100.00
35435;BME280;21556;55.782;37.528;2024-03-23T09:06:14;98175.75;;;7.15;100.00
35435;BME280;21556;55.782;37.528;2024-03-23T09:08:43;98179.03;;;6.93;100.00
35435;BME280;21556;55.782;37.528;2024-03-23T09:11:11;98173.06;;;7.06;100.00
35435;BME280;21556;55.782;37.528;2024-03-23T09:13:37;98164.41;;;7.12;100.00
35435;BME280;21556;55.782;37.528;2024-03-23T09:16:04;98160.88;;;7.04;100.00
35435;BME280;21556;55.782;37.528;2024-03-23T09:18:33;98154.94;;;7.31;100.00
35435;BME280;21556;55.782;37.528;2024-03-23T09:21:00;98164.38;;;7.10;100.00
35435;BME280;21556;55.782;37.528;2024-03-23T09:23:26;98156.59;;;7.15;100.00
35435;BME280;21556;55.782;37.528;2024-03-23T09:25:52;98165.25;;;7.09;100.00
35435;BME280;21556;55.782;37.528;2024-03-23T09:28:18;98157.44;;;7.09;100.00
35435;BME280;21556;55.782;37.528;2024-03-23T09:30:44;98150.59;;;7.31;100.00
35435;BME280;21556;55.782;37.528;2024-03-23T09:33:11;98150.53;;;7.16;100.00
35435;BME280;21556;55.782;37.528;2024-03-23T09:35:40;98148.00;;;7.31;100.00
35435;BME280;21556;55.782;37.528;2024-03-23T09:38:06;98135.84;;;7.44;100.00
35435;BME280;21556;55.782;37.528;2024-03-23T09:40:40;98140.19;;;7.43;100.00
35435;BME280;21556;55.782;37.528;2024-03-23T09:43:07;98140.25;;;7.53;100.00
35435;BME280;21556;55.782;37.528;2024-03-23T09:45:35;98135.81;;;7.33;100.00
35435;BME280;21556;55.782;37.528;2024-03-23T09:48:02;98142.78;;;7.40;100.00
35435;BME280;21556;55.782;37.528;2024-03-23T09:50:29;98140.28;;;7.56;100.00
35435;BME280;21556;55.782;37.528;2024-03-23T09:52:56;98133.19;;;7.33;100.00
35435;BME280;21556;55.782;37.528;2024-03-23T09:55:22;98133.16;;;7.24;100.00
35435;BME280;21556;55.782;37.528;2024-03-23T09:57:49;98131.38;;;7.14;100.00
35435;BME280;21556;55.782;37.528;2024-03-23T10:00:15;98140.09;;;7.17;100.00
35435;BME280;21556;55.782;37.528;2024-03-23T10:05:31;98126.28;;;7.41;100.00
35435;BME280;21556;55.782;37.528;2024-03-23T10:10:43;98128.94;;;7.54;100.00
35435;BME280;21556;55.782;37.528;2024-03-23T10:13:09;98124.66;;;7.71;100.00
35435;BME280;21556;55.782;37.528;2024-03-23T10:15:38;98125.38;;;7.32;100.00
35435;BME280;21556;55.782;37.528;2024-03-23T10:20:50;98119.38;;;7.62;100.00
35435;BME280;21556;55.782;37.528;2024-03-23T10:23:18;98111.63;;;7.74;100.00
35435;BME280;21556;55.782;37.528;2024-03-23T10:25:45;98113.31;;;7.69;100.00
35435;BME280;21556;55.782;37.528;2024-03-23T10:28:11;98099.44;;;7.79;100.00
35435;BME280;21556;55.782;37.528;2024-03-23T10:30:40;98110.72;;;7.63;100.00
35435;BME280;21556;55.782;37.528;2024-03-23T10:33:12;98109.81;;;7.52;100.00
35435;BME280;21556;55.782;37.528;2024-03-23T10:35:50;98120.22;;;7.45;100.00
35435;BME280;21556;55.782;37.528;2024-03-23T10:38:27;98105.44;;;7.55;100.00
35435;BME280;21556;55.782;37.528;2024-03-23T10:41:00;98103.75;;;7.69;100.00
35435;BME280;21556;55.782;37.528;2024-03-23T10:43:29;98098.50;;;7.48;100.00
35435;BME280;21556;55.782;37.528;2024-03-23T10:45:58;98098.53;;;7.68;100.00
35435;BME280;21556;55.782;37.528;2024-03-23T10:48:25;98113.38;;;7.81;100.00
35435;BME280;21556;55.782;37.528;2024-03-23T10:51:12;98109.00;;;7.77;100.00
35435;BME280;21556;55.782;37.528;2024-03-23T10:53:49;98094.22;;;7.79;100.00
35435;BME280;21556;55.782;37.528;2024-03-23T10:56:17;98101.22;;;8.06;100.00
35435;BME280;21556;55.782;37.528;2024-03-23T10:58:44;98109.00;;;7.80;100.00
35435;BME280;21556;55.782;37.528;2024-03-23T11:01:14;98106.34;;;7.65;100.00
35435;BME280;21556;55.782;37.528;2024-03-23T11:03:51;98095.97;;;7.77;100.00
35435;BME280;21556;55.782;37.528;2024-03-23T11:06:36;98098.59;;;7.92;100.00
35435;BME280;21556;55.782;37.528;2024-03-23T11:09:03;98103.84;;;8.03;100.00
35435;BME280;21556;55.782;37.528;2024-03-23T11:11:32;98095.13;;;8.03;100.00
35435;BME280;21556;55.782;37.528;2024-03-23T11:14:02;98090.75;;;8.12;100.00
35435;BME280;21556;55.782;37.528;2024-03-23T11:16:47;98101.19;;;7.86;100.00
35435;BME280;21556;55.782;37.528;2024-03-23T11:19:33;98079.41;;;7.78;100.00
35435;BME280;21556;55.782;37.528;2024-03-23T11:22:01;98086.34;;;7.68;100.00
35435;BME280;21556;55.782;37.528;2024-03-23T11:24:28;98085.53;;;7.92;100.00
35435;BME280;21556;55.782;37.528;2024-03-23T11:26:53;98085.50;;;7.82;100.00
35435;BME280;21556;55.782;37.528;2024-03-23T11:29:19;98094.25;;;8.05;100.00
35435;BME280;21556;55.782;37.528;2024-03-23T11:31:46;98079.41;;;7.95;100.00
35435;BME280;21556;55.782;37.528;2024-03-23T11:34:12;98075.94;;;7.87;100.00
35435;BME280;21556;55.782;37.528;2024-03-23T11:36:44;98077.72;;;8.14;100.00
35435;BME280;21556;55.782;37.528;2024-03-23T11:43:20;98072.44;;;7.83;100.00
35435;BME280;21556;55.782;37.528;2024-03-23T11:45:50;98085.47;;;7.65;100.00
35435;BME280;21556;55.782;37.528;2024-03-23T11:48:21;98080.31;;;7.95;100.00
35435;BME280;21556;55.782;37.528;2024-03-23T11:50:48;98074.22;;;8.19;100.00
35435;BME280;21556;55.782;37.528;2024-03-23T11:56:01;98067.25;;;8.02;100.00
35435;BME280;21556;55.782;37.528;2024-03-23T11:58:27;98066.38;;;8.09;100.00
35435;BME280;21556;55.782;37.528;2024-03-23T12:03:19;98076.78;;;7.77;100.00
35435;BME280;21556;55.782;37.528;2024-03-23T12:05:51;98066.38;;;7.95;100.00
35435;BME280;21556;55.782;37.528;2024-03-23T12:08:19;98056.78;;;7.83;100.00
35435;BME280;21556;55.782;37.528;2024-03-23T12:10:47;98061.16;;;7.96;100.00
35435;BME280;21556;55.782;37.528;2024-03-23T12:13:17;98065.50;;;7.91;100.00
35435;BME280;21556;55.782;37.528;2024-03-23T12:15:43;98062.88;;;7.90;100.00
35435;BME280;21556;55.782;37.528;2024-03-23T12:18:09;98066.34;;;7.67;100.00
35435;BME280;21556;55.782;37.528;2024-03-23T12:20:36;98057.69;;;8.04;100.00
35435;BME280;21556;55.782;37.528;2024-03-23T12:23:06;98068.13;;;7.78;100.00
35435;BME280;21556;55.782;37.528;2024-03-23T12:25:32;98072.47;;;7.91;100.00
35435;BME280;21556;55.782;37.528;2024-03-23T12:28:04;98054.16;;;7.71;100.00
35435;BME280;21556;55.782;37.528;2024-03-23T12:30:40;98066.38;;;7.96;100.00
35435;BME280;21556;55.782;37.528;2024-03-23T12:33:10;98067.22;;;7.79;100.00
35435;BME280;21556;55.782;37.528;2024-03-23T12:35:36;98060.28;;;7.97;100.00
35435;BME280;21556;55.782;37.528;2024-03-23T12:38:02;98059.44;;;8.14;100.00
35435;BME280;21556;55.782;37.528;2024-03-23T12:40:28;98057.69;;;8.11;100.00
35435;BME280;21556;55.782;37.528;2024-03-23T12:42:54;98054.22;;;8.14;100.00
35435;BME280;21556;55.782;37.528;2024-03-23T12:45:20;98055.94;;;7.90;100.00
35435;BME280;21556;55.782;37.528;2024-03-23T12:50:32;98054.19;;;7.85;100.00
35435;BME280;21556;55.782;37.528;2024-03-23T12:52:58;98054.19;;;7.99;100.00
35435;BME280;21556;55.782;37.528;2024-03-23T12:55:24;98048.13;;;8.00;100.00
35435;BME280;21556;55.782;37.528;2024-03-23T12:57:50;98055.06;;;8.08;100.00
35435;BME280;21556;55.782;37.528;2024-03-23T13:00:16;98045.47;;;7.80;100.00
35435;BME280;21556;55.782;37.528;2024-03-23T13:02:42;98049.84;;;8.13;100.00
35435;BME280;21556;55.782;37.528;2024-03-23T13:05:08;98046.38;;;8.14;100.00
35435;BME280;21556;55.782;37.528;2024-03-23T13:07:34;98047.22;;;7.90;100.00
35435;BME280;21556;55.782;37.528;2024-03-23T13:10:01;98049.84;;;8.08;100.00
35435;BME280;21556;55.782;37.528;2024-03-23T13:12:27;98049.81;;;7.84;100.00
35435;BME280;21556;55.782;37.528;2024-03-23T13:14:53;98049.75;;;7.35;100.00
35435;BME280;21556;55.782;37.528;2024-03-23T13:17:20;98052.44;;;7.85;100.00
35435;BME280;21556;55.782;37.528;2024-03-23T13:19:45;98058.56;;;7.96;100.00
35435;BME280;21556;55.782;37.528;2024-03-23T13:22:12;98043.75;;;7.99;100.00
35435;BME280;21556;55.782;37.528;2024-03-23T13:24:38;98052.44;;;7.94;100.00
35435;BME280;21556;55.782;37.528;2024-03-23T13:27:04;98042.00;;;7.93;100.00
35435;BME280;21556;55.782;37.528;2024-03-23T13:29:33;98045.47;;;8.06;100.00
35435;BME280;21556;55.782;37.528;2024-03-23T13:32:03;98043.75;;;7.94;100.00
35435;BME280;21556;55.782;37.528;2024-03-23T13:34:29;98044.59;;;7.84;100.00
35435;BME280;21556;55.782;37.528;2024-03-23T13:37:03;98042.84;;;7.72;100.00
35435;BME280;21556;55.782;37.528;2024-03-23T13:39:30;98043.75;;;8.08;100.00
35435;BME280;21556;55.782;37.528;2024-03-23T13:41:56;98033.31;;;8.08;100.00
35435;BME280;21556;55.782;37.528;2024-03-23T13:44:27;98034.19;;;8.01;100.00
35435;BME280;21556;55.782;37.528;2024-03-23T13:46:56;98034.16;;;8.13;100.00
35435;BME280;21556;55.782;37.528;2024-03-23T13:51:53;98036.78;;;8.11;100.00
35435;BME280;21556;55.782;37.528;2024-03-23T13:54:22;98027.22;;;8.18;100.00
35435;BME280;21556;55.782;37.528;2024-03-23T13:56:50;98041.09;;;7.57;100.00
35435;BME280;21556;55.782;37.528;2024-03-23T13:59:16;98030.69;;;7.88;100.00
35435;BME280;21556;55.782;37.528;2024-03-23T14:01:44;98027.19;;;8.06;100.00
35435;BME280;21556;55.782;37.528;2024-03-23T14:04:19;98022.84;;;7.86;100.00
35435;BME280;21556;55.782;37.528;2024-03-23T14:06:46;98024.59;;;8.07;100.00
35435;BME280;21556;55.782;37.528;2024-03-23T14:09:12;98040.25;;;7.78;100.00